Time;durP1;ratioP1;P1;durP2;ratioP2;P2;SDS_P1;SDS_P2;PMS_P1;PMS_P2;Temp;Humidity;BMP_temperature;BMP_pressure;BME280_temperature;BME280_humidity;BME280_pressure;Samples;Min_cycle;Max_cycle;Signal;HPM_P1;HPM_P2
2022/08/28 00:04:36;;;;;;;2.50;2.20;;;;;;;21.14;61.52;100136.06;10332422;28;20053;-72
2022/08/28 00:09:37;;;;;;;3.17;1.70;;;;;;;21.12;61.22;100142.69;10335961;28;20049;-72
2022/08/28 00:14:39;;;;;;;2.28;1.92;;;;;;;21.19;61.76;100139.00;10334166;28;20045;-73
2022/08/28 00:19:40;;;;;;;2.65;2.00;;;;;;;21.19;61.54;100138.19;10325462;28;20048;-71
2022/08/28 00:24:43;;;;;;;3.53;2.00;;;;;;;21.21;61.52;100151.50;10329847;28;20139;-70
2022/08/28 00:29:44;;;;;;;2.83;1.97;;;;;;;21.27;61.54;100157.00;10332599;28;20138;-71
2022/08/28 00:34:46;;;;;;;2.67;1.90;;;;;;;21.33;61.53;100160.75;10332536;28;20037;-71
2022/08/28 00:39:48;;;;;;;5.47;1.98;;;;;;;21.35;61.54;100166.84;10335622;28;20064;-71
2022/08/28 00:44:49;;;;;;;3.28;1.90;;;;;;;21.33;60.68;100171.59;10330099;28;20303;-72
2022/08/28 00:49:53;;;;;;;2.83;2.08;;;;;;;21.33;60.98;100172.44;10340771;28;20052;-73
2022/08/28 00:55:02;;;;;;;4.93;2.08;;;;;;;21.25;60.95;100163.63;10332270;28;20049;-71
2022/08/28 01:00:16;;;;;;;5.97;2.72;;;;;;;21.21;60.59;100168.59;10332109;28;20887;-73
2022/08/28 01:05:18;;;;;;;;;;;;;;;21.23;61.01;100168.38;10334180;28;20045;-73
2022/08/28 01:10:22;;;;;;;5.65;2.30;;;;;;;21.14;60.77;100157.72;10331839;28;20025;-73
2022/08/28 01:15:28;;;;;;;4.07;2.13;;;;;;;21.09;61.45;100160.19;10329317;28;20513;-73
2022/08/28 01:20:32;;;;;;;4.55;2.30;;;;;;;21.12;61.23;100159.78;10343425;28;20049;-75
2022/08/28 01:25:36;;;;;;;3.80;2.13;;;;;;;21.08;60.85;100153.09;10340874;28;20145;-71
2022/08/28 01:30:41;;;;;;;6.03;2.15;;;;;;;21.07;61.70;100154.09;10326398;28;20405;-71
2022/08/28 01:35:46;;;;;;;4.22;2.00;;;;;;;21.01;61.84;100154.88;10341724;28;21413;-70
2022/08/28 01:40:52;;;;;;;3.47;2.25;;;;;;;21.01;61.62;100152.19;10330747;28;20072;-72
2022/08/28 01:46:03;;;;;;;2.80;1.85;;;;;;;20.92;62.11;100153.34;10329237;28;20748;-73
2022/08/28 01:51:04;;;;;;;4.88;2.03;;;;;;;20.94;62.45;100148.56;10331501;28;20880;-72
2022/08/28 01:56:11;;;;;;;5.35;2.17;;;;;;;20.99;61.81;100148.84;10328264;28;20153;-71
2022/08/28 02:01:15;;;;;;;4.15;2.85;;;;;;;20.89;61.65;100143.75;10331435;28;20064;-73
2022/08/28 02:06:18;;;;;;;4.38;2.13;;;;;;;20.87;61.80;100150.38;10333815;28;20141;-73
2022/08/28 02:11:22;;;;;;;3.95;1.90;;;;;;;20.72;62.58;100151.28;10331589;28;20045;-74
2022/08/28 02:16:24;;;;;;;3.28;1.80;;;;;;;20.77;62.51;100154.25;10330856;28;20053;-70
2022/08/28 02:21:26;;;;;;;3.75;1.80;;;;;;;20.79;62.59;100154.91;10333665;28;20064;-72
2022/08/28 02:26:28;;;;;;;2.20;2.00;;;;;;;20.82;63.00;100159.94;10329788;28;20060;-74
2022/08/28 02:31:29;;;;;;;4.32;1.83;;;;;;;20.76;63.76;100166.13;10330690;28;20563;-71
2022/08/28 02:36:32;;;;;;;4.65;1.70;;;;;;;20.73;63.17;100162.94;10329947;28;20046;-71
2022/08/28 02:41:34;;;;;;;3.25;2.13;;;;;;;20.59;64.24;100167.34;10334355;28;20068;-70
2022/08/28 02:46:35;;;;;;;4.70;2.50;;;;;;;20.53;63.59;100149.19;10338319;28;20735;-72
2022/08/28 02:51:37;;;;;;;5.25;2.08;;;;;;;20.63;63.21;100155.94;10338757;28;20093;-71
2022/08/28 02:56:38;;;;;;;6.60;2.92;;;;;;;20.63;63.65;100168.66;10336550;28;20050;-70
2022/08/28 03:01:39;;;;;;;6.32;2.25;;;;;;;20.61;63.25;100166.13;10335292;28;20056;-70
2022/08/28 03:06:41;;;;;;;3.88;2.20;;;;;;;20.68;63.65;100171.63;10337294;28;20062;-72
2022/08/28 03:11:42;;;;;;;3.47;1.80;;;;;;;20.42;63.43;100164.03;10338426;28;20049;-71
2022/08/28 03:16:44;;;;;;;5.40;2.13;;;;;;;20.51;63.46;100159.34;10330799;28;20695;-70
2022/08/28 03:21:45;;;;;;;7.10;2.50;;;;;;;20.59;63.69;100164.63;10337067;28;20056;-71
2022/08/28 03:26:47;;;;;;;5.47;2.95;;;;;;;20.61;63.02;100165.28;10329768;28;20045;-71
2022/08/28 03:31:48;;;;;;;5.20;2.50;;;;;;;20.49;62.83;100173.91;10336452;28;20617;-70
2022/08/28 03:36:49;;;;;;;3.75;2.00;;;;;;;20.54;63.30;100167.91;10337266;28;20405;-70
2022/08/28 03:41:51;;;;;;;4.43;2.53;;;;;;;20.47;63.83;100175.94;10336431;28;20056;-71
2022/08/28 03:46:52;;;;;;;5.78;2.42;;;;;;;20.46;63.88;100176.97;10334376;28;20056;-71
2022/08/28 03:51:53;;;;;;;4.55;2.60;;;;;;;20.32;65.92;100177.84;10331578;28;20050;-69
2022/08/28 03:56:55;;;;;;;7.10;2.38;;;;;;;20.30;65.08;100177.22;10335401;28;20128;-71
2022/08/28 04:01:56;;;;;;;4.97;2.47;;;;;;;20.36;63.29;100176.44;10335126;28;20050;-73
2022/08/28 04:06:57;;;;;;;4.25;2.50;;;;;;;20.45;63.80;100169.06;10333144;28;20555;-71
2022/08/28 04:11:59;;;;;;;5.70;2.88;;;;;;;20.45;62.61;100178.00;10333860;28;20064;-69
2022/08/28 04:17:00;;;;;;;4.50;2.00;;;;;;;20.49;62.17;100192.81;10335174;28;20052;-70
2022/08/28 04:22:02;;;;;;;3.90;1.98;;;;;;;20.48;62.41;100188.44;10337196;28;20049;-71
2022/08/28 04:27:04;;;;;;;4.53;1.90;;;;;;;20.43;62.30;100196.28;10334953;28;20547;-72
2022/08/28 04:32:06;;;;;;;5.40;2.25;;;;;;;20.37;62.34;100188.94;10334681;28;20045;-70
2022/08/28 04:37:07;;;;;;;4.60;1.58;;;;;;;20.42;62.06;100197.31;10336786;28;20045;-72
2022/08/28 04:42:09;;;;;;;4.55;2.42;;;;;;;20.37;62.37;100198.91;10332650;28;20065;-71
2022/08/28 04:47:10;;;;;;;6.82;2.65;;;;;;;20.40;61.61;100204.78;10334674;28;20068;-71
2022/08/28 04:52:12;;;;;;;5.57;2.50;;;;;;;20.27;61.97;100200.03;10333644;28;20054;-71
2022/08/28 04:57:13;;;;;;;4.68;2.10;;;;;;;20.34;62.04;100202.81;10335739;28;20054;-70
2022/08/28 05:02:14;;;;;;;6.15;2.22;;;;;;;20.29;61.79;100197.13;10334670;28;20674;-74
2022/08/28 05:07:16;;;;;;;5.32;2.38;;;;;;;20.29;61.47;100207.94;10337492;28;20057;-71
2022/08/28 05:12:18;;;;;;;4.65;1.98;;;;;;;20.33;61.60;100203.84;10331495;28;20157;-69
2022/08/28 05:17:19;;;;;;;5.20;2.08;;;;;;;20.33;62.18;100214.66;10335009;28;20056;-70
2022/08/28 05:22:21;;;;;;;4.85;1.77;;;;;;;20.34;61.76;100216.31;10330842;28;20058;-72
2022/08/28 05:27:23;;;;;;;4.57;1.90;;;;;;;20.38;61.21;100223.03;10344261;28;20525;-71
2022/08/28 05:32:24;;;;;;;5.47;1.88;;;;;;;20.37;61.60;100231.34;10319957;28;20746;-72
2022/08/28 05:37:26;;;;;;;8.30;2.25;;;;;;;20.31;61.17;100244.59;10300798;28;20054;-72
2022/08/28 05:42:27;;;;;;;8.15;2.33;;;;;;;20.31;62.00;100255.41;10296716;28;20119;-75
2022/08/28 05:47:32;;;;;;;3.05;1.60;;;;;;;20.18;62.57;100267.91;10304157;28;20547;-74
2022/08/28 05:52:34;;;;;;;4.18;2.22;;;;;;;20.22;61.96;100267.34;10294251;28;20880;-71
2022/08/28 05:57:36;;;;;;;6.25;2.05;;;;;;;20.24;61.66;100269.84;10306093;28;20138;-72
2022/08/28 06:02:38;;;;;;;2.50;1.40;;;;;;;20.21;61.49;100265.66;10301706;28;20060;-72
2022/08/28 06:07:40;;;;;;;5.50;1.93;;;;;;;20.32;62.38;100261.63;10306645;28;20053;-72
2022/08/28 06:12:41;;;;;;;2.72;1.60;;;;;;;20.56;61.78;100262.34;10305396;28;20046;-72
2022/08/28 06:17:43;;;;;;;3.80;1.67;;;;;;;20.74;59.32;100260.09;10312054;28;20050;-76
2022/08/28 06:22:44;;;;;;;3.38;1.50;;;;;;;20.83;60.21;100250.84;10315131;28;20058;-76
2022/08/28 06:27:45;;;;;;;6.13;1.65;;;;;;;20.82;59.73;100257.31;10313219;28;20071;-75
2022/08/28 06:32:47;;;;;;;3.22;1.98;;;;;;;21.08;60.06;100268.63;10313066;28;20068;-74
2022/08/28 06:37:48;;;;;;;6.18;2.70;;;;;;;21.12;58.69;100273.47;10312953;28;20058;-74
2022/08/28 06:42:50;;;;;;;7.35;2.00;;;;;;;21.04;58.75;100281.69;10311192;28;20075;-73
2022/08/28 06:47:51;;;;;;;5.65;1.65;;;;;;;20.92;58.40;100280.50;10320403;28;20054;-74
2022/08/28 06:52:53;;;;;;;4.65;1.73;;;;;;;21.05;59.33;100294.19;10308342;28;20042;-73
2022/08/28 06:57:55;;;;;;;7.57;2.30;;;;;;;21.11;58.12;100295.28;10311626;28;20058;-75
2022/08/28 07:02:57;;;;;;;3.38;1.70;;;;;;;21.09;58.17;100284.66;10310108;28;20049;-74
2022/08/28 07:07:59;;;;;;;6.43;1.55;;;;;;;21.02;57.41;100289.16;10308936;28;20144;-73
2022/08/28 07:13:02;;;;;;;7.55;2.30;;;;;;;21.15;56.31;100292.00;10309181;28;20061;-73
2022/08/28 07:18:03;;;;;;;5.35;2.35;;;;;;;21.23;57.31;100291.03;10311300;28;20050;-73
2022/08/28 07:23:05;;;;;;;4.90;1.80;;;;;;;21.36;57.35;100302.00;10309994;28;21276;-74
2022/08/28 07:28:07;;;;;;;4.35;1.67;;;;;;;21.51;55.73;100293.00;10306997;28;20091;-73
2022/08/28 07:33:08;;;;;;;5.07;1.60;;;;;;;21.59;56.03;100294.72;10310361;28;20124;-73
2022/08/28 07:38:10;;;;;;;6.40;2.42;;;;;;;21.49;54.96;100300.44;10310864;28;20060;-74
2022/08/28 07:48:35;;;;;;;4.47;1.75;;;;;;;21.67;54.73;100305.44;10305996;28;20196;-72
2022/08/28 07:53:37;;;;;;;8.38;2.03;;;;;;;21.76;55.53;100304.25;10312913;28;20060;-74
2022/08/28 07:58:39;;;;;;;5.00;2.20;;;;;;;21.94;53.39;100319.22;10312288;28;20141;-72
2022/08/28 08:03:40;;;;;;;6.05;1.60;;;;;;;22.58;52.57;100310.06;10312190;28;20077;-73
2022/08/28 08:08:44;;;;;;;4.88;1.48;;;;;;;23.19;50.59;100311.13;10312909;28;20065;-76
2022/08/28 08:13:46;;;;;;;6.80;1.75;;;;;;;23.08;50.43;100320.69;10315971;28;20705;-76
2022/08/28 08:18:51;;;;;;;6.80;1.88;;;;;;;22.93;50.85;100324.38;10308567;28;20587;-72
2022/08/28 08:23:54;;;;;;;6.07;1.77;;;;;;;23.09;50.09;100322.38;10309672;28;20601;-71
2022/08/28 08:28:56;;;;;;;5.57;1.90;;;;;;;23.50;49.27;100329.59;10317462;28;20049;-73
2022/08/28 08:34:01;;;;;;;4.03;1.60;;;;;;;23.84;49.07;100325.03;10322220;28;20429;-75
2022/08/28 08:39:05;;;;;;;4.00;1.80;;;;;;;24.15;47.87;100331.69;10309982;28;20045;-72
2022/08/28 08:44:28;;;;;;;8.50;1.92;;;;;;;24.40;46.24;100331.88;10319643;28;20064;-73
2022/08/28 08:49:38;;;;;;;6.30;2.10;;;;;;;24.72;46.23;100331.19;10316441;28;20100;-73
2022/08/28 08:54:50;;;;;;;5.63;1.55;;;;;;;24.94;44.41;100339.91;10308725;28;20091;-74
2022/08/28 08:59:52;;;;;;;2.08;1.17;;;;;;;25.23;43.53;100330.31;10308647;28;20060;-75
2022/08/28 09:05:02;;;;;;;5.45;2.70;;;;;;;25.25;43.71;100322.75;10310339;28;20071;-75
2022/08/28 09:10:06;;;;;;;5.15;2.30;;;;;;;25.77;42.49;100341.72;10306457;28;20046;-71
2022/08/28 09:15:25;;;;;;;5.72;2.10;;;;;;;25.71;42.07;100318.91;10309196;28;20129;-71
2022/08/28 09:20:27;;;;;;;6.30;1.77;;;;;;;25.98;42.31;100335.03;10307508;28;20365;-77
2022/08/28 09:25:43;;;;;;;3.85;1.52;;;;;;;26.28;40.67;100334.38;10303345;28;20072;-74
2022/08/28 09:30:56;;;;;;;4.25;1.38;;;;;;;26.79;39.40;100333.19;10305931;28;20047;-74
2022/08/28 09:36:28;;;;;;;9.50;1.98;;;;;;;27.04;38.82;100332.25;10334908;28;20365;-73
2022/08/28 09:46:51;;;;;;;6.30;2.13;;;;;;;27.15;38.57;100333.38;10308281;28;20046;-74
2022/08/28 09:51:53;;;;;;;6.43;1.80;;;;;;;27.30;37.52;100333.78;10318356;28;20050;-74
2022/08/28 09:56:55;;;;;;;4.57;1.83;;;;;;;27.56;38.02;100333.66;10317909;28;20112;-75
2022/08/28 10:02:23;;;;;;;3.87;1.60;;;;;;;28.52;35.73;100339.78;10322916;28;20114;-76
2022/08/28 10:07:33;;;;;;;6.53;1.60;;;;;;;29.59;34.86;100350.41;10343811;28;20129;-74
2022/08/28 10:12:50;;;;;;;7.13;2.42;;;;;;;29.68;33.25;100335.22;10325655;28;20157;-75
2022/08/28 10:18:24;;;;;;;3.97;1.50;;;;;;;29.52;32.81;100328.63;10324672;28;20433;-78
2022/08/28 10:23:33;;;;;;;3.35;1.50;;;;;;;30.53;31.68;100331.59;10318416;28;20050;-77
2022/08/28 10:28:56;;;;;;;4.32;1.40;;;;;;;33.15;27.66;100328.22;10317852;28;20102;-75
2022/08/28 10:34:13;;;;;;;4.55;1.65;;;;;;;33.65;26.99;100323.88;10315566;28;20061;-77
2022/08/28 10:39:44;;;;;;;2.85;1.50;;;;;;;33.29;28.34;100314.75;10310818;28;20194;-78
2022/08/28 10:45:03;;;;;;;6.47;1.90;;;;;;;33.16;28.01;100306.97;10317093;28;20849;-77
2022/08/28 10:50:17;;;;;;;4.93;1.75;;;;;;;36.10;23.86;100318.59;10343078;28;20424;-75
2022/08/28 10:55:26;;;;;;;3.47;1.35;;;;;;;39.06;20.89;100327.09;10330697;28;20153;-77
2022/08/28 11:00:29;;;;;;;5.50;2.10;;;;;;;38.42;20.16;100309.59;10325328;28;20064;-77
2022/08/28 11:05:37;;;;;;;4.13;1.48;;;;;;;39.90;20.21;100305.31;10329170;28;20137;-77
2022/08/28 11:10:47;;;;;;;4.00;1.30;;;;;;;41.99;17.86;100303.09;10315979;28;20471;-76
2022/08/28 11:15:52;;;;;;;1.85;1.02;;;;;;;40.68;18.49;100303.19;10322532;28;20404;-75
2022/08/28 11:21:08;;;;;;;3.33;1.20;;;;;;;42.54;16.53;100302.19;10326590;28;20050;-78
2022/08/28 11:26:13;;;;;;;3.15;1.20;;;;;;;43.92;15.28;100308.94;10311671;28;20046;-79
2022/08/28 11:31:14;;;;;;;4.35;1.85;;;;;;;44.55;14.70;100302.19;10314092;28;20730;-79
2022/08/28 11:36:29;;;;;;;3.75;1.50;;;;;;;42.88;15.65;100300.34;10315138;28;20061;-78
2022/08/28 11:41:55;;;;;;;3.33;1.30;;;;;;;44.38;14.67;100292.06;10308152;28;20068;-76
2022/08/28 11:47:35;;;;;;;3.30;1.25;;;;;;;44.24;14.98;100292.38;10307690;28;20054;-76
2022/08/28 11:53:14;;;;;;;3.53;1.50;;;;;;;44.97;13.18;100289.84;10308417;28;20616;-77
2022/08/28 11:58:48;;;;;;;2.33;1.55;;;;;;;43.77;14.41;100289.97;10309548;28;20133;-76
2022/08/28 12:04:14;;;;;;;5.50;1.73;;;;;;;45.90;12.78;100290.81;10322488;28;20053;-76
2022/08/28 12:09:25;;;;;;;2.90;1.30;;;;;;;43.32;14.20;100290.78;10312575;28;20042;-73
2022/08/28 12:14:27;;;;;;;4.22;1.40;;;;;;;44.48;13.82;100276.72;10311116;28;20067;-75
2022/08/28 12:19:52;;;;;;;4.28;1.52;;;;;;;43.11;14.33;100274.81;10309751;28;20548;-75
2022/08/28 12:25:01;;;;;;;2.22;1.25;;;;;;;40.28;16.96;100265.00;10305276;28;20038;-74
2022/08/28 12:30:02;;;;;;;2.58;1.50;;;;;;;38.38;17.83;100271.28;10329682;28;20143;-74
2022/08/28 12:35:15;;;;;;;2.75;1.42;;;;;;;36.98;18.58;100257.38;10311651;28;20162;-73
2022/08/28 12:40:49;;;;;;;2.47;1.67;;;;;;;36.44;19.16;100259.50;10313728;28;20062;-72
2022/08/28 12:46:12;;;;;;;4.50;2.17;;;;;;;36.09;19.83;100256.81;10351910;28;20053;-73
2022/08/28 12:51:26;;;;;;;3.75;2.28;;;;;;;35.59;19.99;100242.34;10325205;28;20496;-75
2022/08/28 12:56:32;;;;;;;4.07;1.92;;;;;;;35.18;20.25;100251.00;10314076;28;20144;-75
2022/08/28 13:01:34;;;;;;;2.13;1.83;;;;;;;34.61;19.57;100242.22;10322874;28;20061;-78
2022/08/28 13:06:37;;;;;;;4.85;2.17;;;;;;;34.18;20.21;100243.47;10317133;28;20050;-75
2022/08/28 13:11:45;;;;;;;4.00;2.50;;;;;;;33.84;20.97;100248.81;10314637;28;20120;-72
2022/08/28 13:16:47;;;;;;;3.63;2.33;;;;;;;33.52;20.00;100238.06;10316932;28;20077;-74
2022/08/28 13:21:59;;;;;;;3.15;1.92;;;;;;;33.40;22.25;100232.81;10322056;28;20054;-73
2022/08/28 13:27:15;;;;;;;3.10;2.10;;;;;;;32.98;21.45;100226.44;10333711;28;20078;-75
2022/08/28 13:32:17;;;;;;;3.50;2.08;;;;;;;32.56;21.98;100224.66;10350282;28;20139;-73
2022/08/28 13:37:51;;;;;;;4.00;2.00;;;;;;;31.91;24.38;100219.41;10355523;28;20112;-74
2022/08/28 13:42:59;;;;;;;2.78;1.58;;;;;;;32.03;21.87;100220.00;10352698;28;20034;-74
2022/08/28 13:48:01;;;;;;;3.65;2.08;;;;;;;31.35;22.69;100211.59;10355011;28;20302;-74
2022/08/28 13:53:03;;;;;;;4.07;2.30;;;;;;;31.35;23.12;100212.41;10355364;28;20093;-73
2022/08/28 13:58:04;;;;;;;5.78;2.67;;;;;;;31.03;23.19;100206.88;10352033;28;20037;-73
2022/08/28 14:08:25;;;;;;;3.53;2.13;;;;;;;30.68;23.17;100208.19;10351363;28;20056;-74
2022/08/28 14:13:27;;;;;;;;;;;;;;;30.32;24.22;100213.22;10356033;28;20103;-73
2022/08/28 14:18:28;;;;;;;4.87;2.33;;;;;;;30.36;23.87;100219.06;10354805;28;19921;-74
2022/08/28 14:23:30;;;;;;;3.25;2.47;;;;;;;30.14;24.11;100217.13;10352350;28;20042;-75
2022/08/28 14:28:31;;;;;;;4.68;2.70;;;;;;;29.99;24.08;100209.50;10352001;28;20058;-72
2022/08/28 14:33:32;;;;;;;4.57;2.70;;;;;;;29.93;23.98;100205.84;10357165;28;20270;-75
2022/08/28 14:38:37;;;;;;;4.72;3.50;;;;;;;29.78;24.78;100205.63;10354806;28;20046;-73
2022/08/28 14:43:38;;;;;;;4.60;2.60;;;;;;;29.38;25.46;100214.88;10316832;28;20058;-72
2022/08/28 14:48:40;;;;;;;5.30;2.60;;;;;;;29.01;24.99;100201.63;10318126;28;20304;-73
2022/08/28 14:53:42;;;;;;;5.13;2.63;;;;;;;28.82;26.43;100199.09;10315529;28;20662;-70
2022/08/28 14:58:44;;;;;;;3.35;2.42;;;;;;;28.51;25.11;100200.38;10313403;28;20057;-72
2022/08/28 15:03:45;;;;;;;6.07;2.22;;;;;;;28.33;25.67;100198.66;10311593;28;20049;-73
2022/08/28 15:08:48;;;;;;;4.27;2.47;;;;;;;28.17;26.43;100206.56;10301731;28;20046;-72
2022/08/28 15:13:51;;;;;;;3.40;2.40;;;;;;;28.28;26.10;100198.56;10303860;28;20176;-70
2022/08/28 15:18:54;;;;;;;4.18;2.85;;;;;;;28.12;25.79;100190.06;10312021;28;20054;-73
2022/08/28 15:23:56;;;;;;;5.05;2.67;;;;;;;27.98;26.55;100200.44;10328064;28;20054;-70
2022/08/28 15:29:01;;;;;;;;;;;;;;;27.92;26.84;100200.53;10312092;28;20736;-72
2022/08/28 15:34:05;;;;;;;2.28;1.95;;;;;;;27.88;27.44;100189.25;10309457;28;20015;-72
2022/08/28 15:44:34;;;;;;;3.45;2.15;;;;;;;27.61;27.08;100180.66;10310029;28;20053;-72
2022/08/28 15:49:37;;;;;;;6.63;2.97;;;;;;;27.24;27.58;100186.34;10307035;28;20054;-70
2022/08/28 15:54:49;;;;;;;5.47;2.10;;;;;;;27.20;28.22;100190.59;10316559;28;20072;-72
2022/08/28 15:59:51;;;;;;;5.15;2.05;;;;;;;27.12;28.71;100187.16;10313838;28;20038;-73
2022/08/28 16:04:53;;;;;;;4.32;2.13;;;;;;;27.09;29.18;100190.34;10308678;28;20050;-71
2022/08/28 16:09:54;;;;;;;4.17;2.40;;;;;;;27.03;29.03;100187.72;10305434;28;20193;-72
2022/08/28 16:14:56;;;;;;;3.75;2.42;;;;;;;26.90;28.98;100194.22;10303439;28;20583;-71
2022/08/28 16:19:57;;;;;;;4.18;2.10;;;;;;;26.85;29.37;100188.63;10303122;28;20056;-73
2022/08/28 16:24:58;;;;;;;4.20;1.88;;;;;;;26.73;28.74;100194.06;10301410;28;20071;-75
2022/08/28 16:30:00;;;;;;;4.30;2.22;;;;;;;26.62;29.20;100201.09;10310089;28;20049;-74
2022/08/28 16:35:02;;;;;;;3.45;2.28;;;;;;;26.59;29.71;100194.19;10308460;28;20713;-74
2022/08/28 16:40:08;;;;;;;3.55;1.88;;;;;;;26.56;30.64;100194.66;10316801;28;20108;-75
2022/08/28 16:45:10;;;;;;;3.22;1.67;;;;;;;26.43;29.42;100187.47;10328258;28;20281;-77
2022/08/28 16:50:13;;;;;;;3.63;1.98;;;;;;;26.33;29.82;100189.91;10336448;28;20176;-76
2022/08/28 16:55:14;;;;;;;2.80;1.88;;;;;;;26.22;30.12;100187.97;10313695;28;20066;-75
2022/08/28 17:00:16;;;;;;;2.38;1.75;;;;;;;26.13;30.15;100189.34;10310634;28;20684;-74
2022/08/28 17:05:18;;;;;;;1.92;1.30;;;;;;;26.01;30.36;100181.91;10313082;28;20054;-74
2022/08/28 17:10:22;;;;;;;4.68;1.33;;;;;;;25.98;30.72;100184.22;10304721;28;20780;-79
2022/08/28 17:15:23;;;;;;;3.10;1.52;;;;;;;25.88;31.17;100184.75;10315241;28;20057;-78
2022/08/28 17:25:45;;;;;;;4.78;1.70;;;;;;;25.70;32.02;100182.84;10313464;28;20056;-78
2022/08/28 17:30:46;;;;;;;3.70;2.50;;;;;;;25.59;32.03;100189.88;10309356;28;20054;-78
2022/08/28 17:35:47;;;;;;;4.50;1.65;;;;;;;25.55;32.68;100188.63;10308685;28;20050;-76
2022/08/28 17:40:52;;;;;;;3.75;1.42;;;;;;;25.45;32.54;100193.78;10313073;28;20074;-76
2022/08/28 17:45:53;;;;;;;2.92;1.17;;;;;;;25.32;31.94;100201.00;10308433;28;20050;-73
2022/08/28 17:50:57;;;;;;;;;;;;;;;25.20;32.39;100210.91;10309277;28;20054;-75
2022/08/28 17:56:01;;;;;;;5.13;1.50;;;;;;;25.09;32.55;100214.38;10309930;28;19948;-73
2022/08/28 18:01:03;;;;;;;6.00;2.28;;;;;;;25.02;32.96;100211.66;10312838;28;20050;-73
2022/08/28 18:06:05;;;;;;;2.83;1.30;;;;;;;24.91;33.44;100220.56;10309514;28;20048;-74
2022/08/28 18:11:07;;;;;;;6.32;1.60;;;;;;;24.84;33.66;100226.03;10307703;28;20061;-75
2022/08/28 18:16:09;;;;;;;6.20;1.95;;;;;;;24.66;33.81;100218.59;10306790;28;20060;-76
2022/08/28 18:21:12;;;;;;;2.80;1.25;;;;;;;24.57;34.58;100239.72;10308650;28;20131;-75
2022/08/28 18:26:14;;;;;;;3.22;1.30;;;;;;;24.45;33.73;100245.00;10313083;28;20046;-73
2022/08/28 18:31:16;;;;;;;4.80;1.57;;;;;;;24.28;34.30;100244.66;10311473;28;20064;-73
2022/08/28 18:36:17;;;;;;;4.77;1.23;;;;;;;24.16;34.03;100249.91;10311615;28;20598;-76
2022/08/28 18:41:19;;;;;;;1.95;1.25;;;;;;;24.06;34.32;100246.78;10310152;28;20053;-75
2022/08/28 18:46:21;;;;;;;3.90;2.10;;;;;;;24.00;34.90;100253.09;10308031;28;20504;-71
2022/08/28 18:51:22;;;;;;;4.65;1.30;;;;;;;23.93;35.14;100260.41;10309647;28;20072;-74
2022/08/28 18:56:24;;;;;;;2.85;1.25;;;;;;;23.91;35.04;100281.53;10316571;28;20060;-72
2022/08/28 19:01:30;;;;;;;3.42;1.08;;;;;;;23.84;35.49;100297.84;10331828;28;20049;-75
2022/08/28 19:06:33;;;;;;;4.80;1.40;;;;;;;23.73;36.29;100304.72;10327188;28;20050;-73
2022/08/28 19:11:35;;;;;;;4.25;1.30;;;;;;;23.66;35.89;100303.91;10306941;28;20057;-77
2022/08/28 19:16:37;;;;;;;4.72;1.33;;;;;;;23.63;36.41;100312.47;10312788;28;20061;-75
2022/08/28 19:21:39;;;;;;;1.65;0.98;;;;;;;23.44;36.04;100308.69;10309649;28;20612;-73
2022/08/28 19:26:40;;;;;;;5.50;1.42;;;;;;;23.39;36.46;100325.59;10314040;28;20049;-73
2022/08/28 19:31:45;;;;;;;4.25;1.15;;;;;;;23.36;38.41;100322.44;10308955;28;20141;-72
2022/08/28 19:36:46;;;;;;;5.43;1.40;;;;;;;23.19;37.90;100339.13;10313641;28;20050;-75
2022/08/28 19:41:47;;;;;;;3.72;1.38;;;;;;;23.06;37.03;100342.59;10316196;28;20144;-73
2022/08/28 19:46:49;;;;;;;3.22;1.17;;;;;;;23.03;36.46;100347.59;10313698;28;20068;-73
2022/08/28 19:51:50;;;;;;;6.70;1.42;;;;;;;22.90;38.74;100351.94;10312940;28;20050;-70
2022/08/28 19:56:51;;;;;;;3.65;1.42;;;;;;;22.92;36.76;100359.88;10316215;28;20662;-75
2022/08/28 20:01:53;;;;;;;5.68;1.13;;;;;;;22.82;36.69;100359.41;10310787;28;20080;-71
2022/08/28 20:06:54;;;;;;;5.07;1.23;;;;;;;22.78;38.03;100367.94;10309309;28;20041;-73
2022/08/28 20:11:56;;;;;;;4.18;1.27;;;;;;;22.67;37.96;100378.53;10312830;28;20051;-71
2022/08/28 20:16:57;;;;;;;3.13;1.63;;;;;;;22.63;37.80;100382.69;10305031;28;20049;-72
2022/08/28 20:21:58;;;;;;;4.28;1.17;;;;;;;22.54;38.85;100377.41;10308406;28;20420;-71
2022/08/28 20:27:00;;;;;;;5.47;1.52;;;;;;;22.46;38.56;100391.16;10306827;28;20079;-70
2022/08/28 20:32:01;;;;;;;5.90;1.42;;;;;;;22.41;38.58;100377.31;10307235;28;20436;-72
2022/08/28 20:37:03;;;;;;;3.90;1.05;;;;;;;22.04;40.04;100379.34;10303948;28;20064;-71
2022/08/28 20:42:05;;;;;;;4.88;1.63;;;;;;;22.04;39.42;100382.88;10304842;28;20064;-72
2022/08/28 20:47:06;;;;;;;4.15;1.33;;;;;;;22.11;39.70;100392.94;10305579;28;20054;-73
2022/08/28 20:52:09;;;;;;;4.68;1.48;;;;;;;22.03;40.34;100397.44;10305901;28;20049;-72
2022/08/28 20:57:14;;;;;;;3.63;1.30;;;;;;;21.98;43.55;100399.06;10304548;28;20050;-72
2022/08/28 21:02:18;;;;;;;5.00;1.63;;;;;;;21.98;40.95;100407.19;10327537;28;20552;-74
2022/08/28 21:07:22;;;;;;;9.07;1.23;;;;;;;22.04;41.60;100411.84;10331604;28;20065;-73
2022/08/28 21:12:25;;;;;;;3.83;1.40;;;;;;;21.89;42.24;100415.47;10326556;28;20072;-74
2022/08/28 21:17:26;;;;;;;5.38;1.45;;;;;;;21.92;41.13;100421.53;10327837;28;20133;-72
2022/08/28 21:22:31;;;;;;;2.80;1.00;;;;;;;21.94;42.17;100433.03;10337057;28;20050;-74
2022/08/28 21:27:36;;;;;;;6.50;1.92;;;;;;;21.85;41.67;100435.03;10347237;28;20057;-75
2022/08/28 21:32:38;;;;;;;2.85;1.30;;;;;;;21.81;42.85;100442.72;10330364;28;20216;-74
2022/08/28 21:37:40;;;;;;;3.78;1.20;;;;;;;21.80;41.77;100443.72;10334489;28;20072;-74
2022/08/28 21:42:42;;;;;;;5.27;1.90;;;;;;;21.78;43.17;100448.47;10329534;28;20057;-73
2022/08/28 21:47:44;;;;;;;4.78;1.83;;;;;;;21.62;41.88;100436.03;10330128;28;20054;-74
2022/08/28 21:52:45;;;;;;;5.03;1.60;;;;;;;21.62;41.70;100440.59;10324363;28;20045;-75
2022/08/28 21:57:47;;;;;;;3.85;2.15;;;;;;;21.52;41.37;100451.75;10329986;28;20046;-74
2022/08/28 22:02:49;;;;;;;4.38;1.55;;;;;;;21.43;42.12;100450.97;10329437;28;20062;-74
2022/08/28 22:07:50;;;;;;;3.72;1.67;;;;;;;21.39;43.51;100452.38;10324961;28;20054;-71
2022/08/28 22:12:52;;;;;;;3.58;1.38;;;;;;;21.34;42.36;100450.25;10329084;28;20056;-75
2022/08/28 22:17:53;;;;;;;2.78;1.30;;;;;;;21.25;41.70;100450.56;10325544;28;20133;-74
2022/08/28 22:23:09;;;;;;;4.57;1.52;;;;;;;21.07;43.08;100459.91;10329409;28;20699;-73
2022/08/28 22:28:11;;;;;;;5.55;1.25;;;;;;;21.01;42.27;100461.47;10329208;28;20049;-72
2022/08/28 22:33:13;;;;;;;3.65;1.30;;;;;;;20.82;42.96;100451.22;10329919;28;20148;-73
2022/08/28 22:38:15;;;;;;;4.65;1.52;;;;;;;20.79;42.75;100447.03;10320660;28;20379;-73
2022/08/28 22:43:17;;;;;;;3.15;1.20;;;;;;;20.67;43.22;100453.91;10331706;28;20062;-73
2022/08/28 22:48:18;;;;;;;5.20;1.50;;;;;;;20.65;43.83;100462.22;10332085;28;20200;-76
2022/08/28 22:53:20;;;;;;;4.88;1.42;;;;;;;20.60;43.34;100455.66;10331946;28;20240;-73
2022/08/28 22:58:21;;;;;;;4.00;1.50;;;;;;;20.53;44.56;100457.41;10342293;28;20127;-74
2022/08/28 23:03:23;;;;;;;2.92;1.63;;;;;;;20.56;42.84;100454.34;10339914;28;20576;-74
2022/08/28 23:08:24;;;;;;;8.40;1.77;;;;;;;20.55;43.19;100463.47;10341563;28;20519;-71
2022/08/28 23:13:30;;;;;;;6.57;1.48;;;;;;;20.51;44.63;100462.16;10354321;28;20065;-74
2022/08/28 23:18:32;;;;;;;3.05;1.25;;;;;;;20.46;44.74;100468.97;10339050;28;20688;-72
2022/08/28 23:23:53;;;;;;;4.80;1.40;;;;;;;20.42;45.15;100470.34;10334653;28;20092;-71
2022/08/28 23:28:55;;;;;;;3.90;1.33;;;;;;;20.33;43.66;100459.78;10350723;28;20133;-73
2022/08/28 23:33:56;;;;;;;4.45;1.23;;;;;;;20.25;46.29;100458.00;10337509;28;20148;-72
2022/08/28 23:38:59;;;;;;;2.97;1.13;;;;;;;20.24;43.02;100459.03;10333858;28;20057;-72
2022/08/28 23:44:00;;;;;;;7.05;1.65;;;;;;;20.10;44.14;100458.81;10335757;28;20057;-72
2022/08/28 23:49:10;;;;;;;3.05;1.30;;;;;;;20.15;44.14;100463.66;10334877;28;20076;-74
2022/08/28 23:54:13;;;;;;;4.18;1.23;;;;;;;20.11;44.03;100455.06;10334327;28;20829;-73